Terminal Aerodrome Forecast
Issued by NWS

Home | Current Version | Previous Version | Text Only | Print | Product List | Glossary On
Versions: 1 2 3 4 5 6 7 8 9 10 11 12 13 14
602
FTUS45 KRIW 191720
TAFRKS
TAF
KRKS 191720Z 1918/2018 12012G19KT P6SM SCT100 OVC150
     FM200200 06024G32KT P6SM SCT030 OVC060
     FM200800 06024G32KT P6SM VCSH OVC040
     FM201300 05020G30KT 3SM -SN OVC020=

USA.gov is the U.S. government's official web portal to all federal, state and local government web resources and services.